sensor_id;sensor_type;location;lat;lon;timestamp;P1;durP1;ratioP1;P2;durP2;ratioP2
71610;SDS011;59459;51.172;6.682;2023-07-31T00:02:14;6.87;;;2.00;;
71610;SDS011;59459;51.172;6.682;2023-07-31T00:04:39;6.50;;;1.80;;
71610;SDS011;59459;51.172;6.682;2023-07-31T00:07:04;9.23;;;2.00;;
71610;SDS011;59459;51.172;6.682;2023-07-31T00:09:31;9.40;;;2.28;;
71610;SDS011;59459;51.172;6.682;2023-07-31T00:11:56;7.10;;;1.87;;
71610;SDS011;59459;51.172;6.682;2023-07-31T00:14:21;9.93;;;1.90;;
71610;SDS011;59459;51.172;6.682;2023-07-31T00:16:46;7.60;;;2.00;;
71610;SDS011;59459;51.172;6.682;2023-07-31T00:19:12;7.83;;;2.23;;
71610;SDS011;59459;51.172;6.682;2023-07-31T00:21:37;11.43;;;2.63;;
71610;SDS011;59459;51.172;6.682;2023-07-31T00:24:02;7.53;;;2.07;;
71610;SDS011;59459;51.172;6.682;2023-07-31T00:26:27;9.35;;;2.75;;
71610;SDS011;59459;51.172;6.682;2023-07-31T00:28:53;9.13;;;2.43;;
71610;SDS011;59459;51.172;6.682;2023-07-31T00:31:18;11.97;;;2.17;;
71610;SDS011;59459;51.172;6.682;2023-07-31T00:33:43;9.50;;;2.17;;
71610;SDS011;59459;51.172;6.682;2023-07-31T00:36:08;6.90;;;2.20;;
71610;SDS011;59459;51.172;6.682;2023-07-31T00:38:33;8.47;;;2.00;;
71610;SDS011;59459;51.172;6.682;2023-07-31T00:40:59;8.00;;;1.80;;
71610;SDS011;59459;51.172;6.682;2023-07-31T00:43:24;10.43;;;2.30;;
71610;SDS011;59459;51.172;6.682;2023-07-31T00:45:49;9.33;;;2.23;;
71610;SDS011;59459;51.172;6.682;2023-07-31T00:48:15;6.73;;;2.23;;
71610;SDS011;59459;51.172;6.682;2023-07-31T00:50:40;5.60;;;2.73;;
71610;SDS011;59459;51.172;6.682;2023-07-31T00:53:06;9.63;;;2.38;;
71610;SDS011;59459;51.172;6.682;2023-07-31T00:55:31;9.63;;;2.50;;
71610;SDS011;59459;51.172;6.682;2023-07-31T00:57:56;9.27;;;2.20;;
71610;SDS011;59459;51.172;6.682;2023-07-31T01:00:22;7.53;;;1.77;;
71610;SDS011;59459;51.172;6.682;2023-07-31T01:02:48;9.00;;;1.60;;
71610;SDS011;59459;51.172;6.682;2023-07-31T01:05:13;8.75;;;2.58;;
71610;SDS011;59459;51.172;6.682;2023-07-31T01:12:35;7.32;;;2.17;;
71610;SDS011;59459;51.172;6.682;2023-07-31T01:17:31;10.65;;;2.30;;
71610;SDS011;59459;51.172;6.682;2023-07-31T01:19:57;5.03;;;1.60;;
71610;SDS011;59459;51.172;6.682;2023-07-31T01:27:30;8.73;;;2.10;;
71610;SDS011;59459;51.172;6.682;2023-07-31T01:30:06;6.53;;;2.15;;
71610;SDS011;59459;51.172;6.682;2023-07-31T01:32:35;9.02;;;2.03;;
71610;SDS011;59459;51.172;6.682;2023-07-31T01:35:01;6.47;;;1.60;;
71610;SDS011;59459;51.172;6.682;2023-07-31T01:37:29;7.87;;;1.80;;
71610;SDS011;59459;51.172;6.682;2023-07-31T01:39:55;7.18;;;2.05;;
71610;SDS011;59459;51.172;6.682;2023-07-31T01:42:20;6.53;;;1.90;;
71610;SDS011;59459;51.172;6.682;2023-07-31T01:44:45;7.77;;;2.13;;
71610;SDS011;59459;51.172;6.682;2023-07-31T01:47:10;10.50;;;1.90;;
71610;SDS011;59459;51.172;6.682;2023-07-31T01:49:35;8.37;;;2.40;;
71610;SDS011;59459;51.172;6.682;2023-07-31T01:52:01;9.13;;;1.73;;
71610;SDS011;59459;51.172;6.682;2023-07-31T01:54:26;8.67;;;2.50;;
71610;SDS011;59459;51.172;6.682;2023-07-31T01:56:51;7.77;;;2.03;;
71610;SDS011;59459;51.172;6.682;2023-07-31T01:59:17;8.47;;;2.67;;
71610;SDS011;59459;51.172;6.682;2023-07-31T02:01:42;8.70;;;1.77;;
71610;SDS011;59459;51.172;6.682;2023-07-31T02:04:07;8.97;;;2.50;;
71610;SDS011;59459;51.172;6.682;2023-07-31T02:06:32;6.37;;;2.03;;
71610;SDS011;59459;51.172;6.682;2023-07-31T02:08:58;6.47;;;1.60;;
71610;SDS011;59459;51.172;6.682;2023-07-31T02:11:23;7.53;;;2.00;;
71610;SDS011;59459;51.172;6.682;2023-07-31T02:13:48;8.47;;;2.77;;
71610;SDS011;59459;51.172;6.682;2023-07-31T02:16:13;7.40;;;2.10;;
71610;SDS011;59459;51.172;6.682;2023-07-31T02:18:38;9.27;;;2.13;;
71610;SDS011;59459;51.172;6.682;2023-07-31T02:21:04;7.70;;;1.73;;
71610;SDS011;59459;51.172;6.682;2023-07-31T02:23:29;7.13;;;2.00;;
71610;SDS011;59459;51.172;6.682;2023-07-31T02:25:54;9.10;;;2.57;;
71610;SDS011;59459;51.172;6.682;2023-07-31T02:28:19;9.70;;;2.40;;
71610;SDS011;59459;51.172;6.682;2023-07-31T02:30:45;8.80;;;2.23;;
71610;SDS011;59459;51.172;6.682;2023-07-31T02:33:11;7.57;;;1.85;;
71610;SDS011;59459;51.172;6.682;2023-07-31T02:35:36;6.70;;;2.17;;
71610;SDS011;59459;51.172;6.682;2023-07-31T02:38:01;7.40;;;1.83;;
71610;SDS011;59459;51.172;6.682;2023-07-31T02:40:26;10.40;;;2.00;;
71610;SDS011;59459;51.172;6.682;2023-07-31T02:42:52;12.10;;;2.00;;
71610;SDS011;59459;51.172;6.682;2023-07-31T02:45:17;9.57;;;2.30;;
71610;SDS011;59459;51.172;6.682;2023-07-31T02:47:42;8.27;;;1.90;;
71610;SDS011;59459;51.172;6.682;2023-07-31T02:50:07;5.93;;;1.63;;
71610;SDS011;59459;51.172;6.682;2023-07-31T02:52:33;8.57;;;2.30;;
71610;SDS011;59459;51.172;6.682;2023-07-31T02:54:58;6.77;;;2.33;;
71610;SDS011;59459;51.172;6.682;2023-07-31T02:57:23;7.80;;;2.37;;
71610;SDS011;59459;51.172;6.682;2023-07-31T02:59:48;8.17;;;2.70;;
71610;SDS011;59459;51.172;6.682;2023-07-31T03:02:13;8.37;;;2.50;;
71610;SDS011;59459;51.172;6.682;2023-07-31T03:04:39;6.35;;;2.38;;
71610;SDS011;59459;51.172;6.682;2023-07-31T03:07:04;6.73;;;2.20;;
71610;SDS011;59459;51.172;6.682;2023-07-31T03:09:30;9.63;;;2.83;;
71610;SDS011;59459;51.172;6.682;2023-07-31T03:11:55;7.30;;;2.33;;
71610;SDS011;59459;51.172;6.682;2023-07-31T03:14:20;12.03;;;2.63;;
71610;SDS011;59459;51.172;6.682;2023-07-31T03:16:45;8.80;;;2.27;;
71610;SDS011;59459;51.172;6.682;2023-07-31T03:19:10;5.13;;;1.80;;
71610;SDS011;59459;51.172;6.682;2023-07-31T03:21:36;7.83;;;2.40;;
71610;SDS011;59459;51.172;6.682;2023-07-31T03:24:01;7.77;;;2.30;;
71610;SDS011;59459;51.172;6.682;2023-07-31T03:26:26;9.50;;;2.40;;
71610;SDS011;59459;51.172;6.682;2023-07-31T03:28:51;8.00;;;2.50;;
71610;SDS011;59459;51.172;6.682;2023-07-31T03:31:16;9.13;;;2.60;;
71610;SDS011;59459;51.172;6.682;2023-07-31T03:33:42;10.17;;;2.40;;
71610;SDS011;59459;51.172;6.682;2023-07-31T03:36:07;9.37;;;2.50;;
71610;SDS011;59459;51.172;6.682;2023-07-31T03:38:33;7.65;;;1.90;;
71610;SDS011;59459;51.172;6.682;2023-07-31T03:40:58;6.73;;;1.97;;
71610;SDS011;59459;51.172;6.682;2023-07-31T03:43:24;9.50;;;2.37;;
71610;SDS011;59459;51.172;6.682;2023-07-31T03:45:49;8.15;;;2.72;;
71610;SDS011;59459;51.172;6.682;2023-07-31T03:48:15;7.63;;;2.00;;
71610;SDS011;59459;51.172;6.682;2023-07-31T03:50:41;6.40;;;2.08;;
71610;SDS011;59459;51.172;6.682;2023-07-31T03:53:06;9.37;;;2.20;;
71610;SDS011;59459;51.172;6.682;2023-07-31T03:55:31;9.00;;;2.30;;
71610;SDS011;59459;51.172;6.682;2023-07-31T03:57:56;7.40;;;2.40;;
71610;SDS011;59459;51.172;6.682;2023-07-31T04:00:22;10.10;;;2.63;;
71610;SDS011;59459;51.172;6.682;2023-07-31T04:02:47;8.27;;;2.25;;
71610;SDS011;59459;51.172;6.682;2023-07-31T04:05:13;8.40;;;2.20;;
71610;SDS011;59459;51.172;6.682;2023-07-31T04:07:38;9.23;;;2.13;;
71610;SDS011;59459;51.172;6.682;2023-07-31T04:10:03;9.67;;;2.70;;
71610;SDS011;59459;51.172;6.682;2023-07-31T04:12:28;7.97;;;2.13;;
71610;SDS011;59459;51.172;6.682;2023-07-31T04:14:54;8.57;;;2.10;;
71610;SDS011;59459;51.172;6.682;2023-07-31T04:17:19;7.57;;;2.13;;
71610;SDS011;59459;51.172;6.682;2023-07-31T04:19:44;13.07;;;2.87;;
71610;SDS011;59459;51.172;6.682;2023-07-31T04:22:09;10.20;;;2.50;;
71610;SDS011;59459;51.172;6.682;2023-07-31T04:24:34;7.43;;;2.53;;
71610;SDS011;59459;51.172;6.682;2023-07-31T04:27:00;9.20;;;2.13;;
71610;SDS011;59459;51.172;6.682;2023-07-31T04:29:25;6.73;;;2.47;;
71610;SDS011;59459;51.172;6.682;2023-07-31T04:31:50;6.63;;;2.07;;
71610;SDS011;59459;51.172;6.682;2023-07-31T04:34:15;6.60;;;2.33;;
71610;SDS011;59459;51.172;6.682;2023-07-31T04:36:41;9.73;;;2.47;;
71610;SDS011;59459;51.172;6.682;2023-07-31T04:39:06;9.63;;;2.67;;
71610;SDS011;59459;51.172;6.682;2023-07-31T04:41:31;6.27;;;2.00;;
71610;SDS011;59459;51.172;6.682;2023-07-31T04:43:56;8.37;;;2.57;;
71610;SDS011;59459;51.172;6.682;2023-07-31T04:46:21;6.33;;;2.10;;
71610;SDS011;59459;51.172;6.682;2023-07-31T04:48:47;7.37;;;2.70;;
71610;SDS011;59459;51.172;6.682;2023-07-31T04:51:12;8.70;;;2.67;;
71610;SDS011;59459;51.172;6.682;2023-07-31T04:53:37;6.37;;;2.40;;
71610;SDS011;59459;51.172;6.682;2023-07-31T04:56:02;10.97;;;2.50;;
71610;SDS011;59459;51.172;6.682;2023-07-31T04:58:28;8.33;;;2.87;;
71610;SDS011;59459;51.172;6.682;2023-07-31T05:00:53;7.90;;;2.03;;
71610;SDS011;59459;51.172;6.682;2023-07-31T05:03:18;9.10;;;2.90;;
71610;SDS011;59459;51.172;6.682;2023-07-31T05:05:43;11.07;;;2.50;;
71610;SDS011;59459;51.172;6.682;2023-07-31T05:08:08;8.20;;;2.63;;
71610;SDS011;59459;51.172;6.682;2023-07-31T05:10:34;7.43;;;2.60;;
71610;SDS011;59459;51.172;6.682;2023-07-31T05:12:59;5.80;;;2.20;;
71610;SDS011;59459;51.172;6.682;2023-07-31T05:15:24;7.50;;;3.17;;
71610;SDS011;59459;51.172;6.682;2023-07-31T05:17:50;8.07;;;2.87;;
71610;SDS011;59459;51.172;6.682;2023-07-31T05:20:15;7.70;;;2.37;;
71610;SDS011;59459;51.172;6.682;2023-07-31T05:22:40;7.50;;;2.17;;
71610;SDS011;59459;51.172;6.682;2023-07-31T05:25:05;9.37;;;2.33;;
71610;SDS011;59459;51.172;6.682;2023-07-31T05:27:31;7.23;;;3.03;;
71610;SDS011;59459;51.172;6.682;2023-07-31T05:29:56;7.63;;;2.60;;
71610;SDS011;59459;51.172;6.682;2023-07-31T05:32:22;6.50;;;2.07;;
71610;SDS011;59459;51.172;6.682;2023-07-31T05:34:47;6.70;;;2.53;;
71610;SDS011;59459;51.172;6.682;2023-07-31T05:37:13;7.95;;;2.22;;
71610;SDS011;59459;51.172;6.682;2023-07-31T05:39:39;10.20;;;2.45;;
71610;SDS011;59459;51.172;6.682;2023-07-31T05:42:04;6.07;;;2.23;;
71610;SDS011;59459;51.172;6.682;2023-07-31T05:44:30;8.67;;;2.43;;
71610;SDS011;59459;51.172;6.682;2023-07-31T05:46:55;5.87;;;2.13;;
71610;SDS011;59459;51.172;6.682;2023-07-31T05:49:20;7.33;;;2.40;;
71610;SDS011;59459;51.172;6.682;2023-07-31T05:51:45;5.90;;;2.23;;
71610;SDS011;59459;51.172;6.682;2023-07-31T05:54:10;9.07;;;2.83;;
71610;SDS011;59459;51.172;6.682;2023-07-31T05:56:36;8.47;;;2.13;;
71610;SDS011;59459;51.172;6.682;2023-07-31T05:59:01;8.43;;;2.43;;
71610;SDS011;59459;51.172;6.682;2023-07-31T06:01:27;6.55;;;2.35;;
71610;SDS011;59459;51.172;6.682;2023-07-31T06:03:53;9.63;;;2.40;;
71610;SDS011;59459;51.172;6.682;2023-07-31T06:06:18;8.80;;;2.57;;
71610;SDS011;59459;51.172;6.682;2023-07-31T06:08:43;6.60;;;2.17;;
71610;SDS011;59459;51.172;6.682;2023-07-31T06:11:08;5.17;;;1.80;;
71610;SDS011;59459;51.172;6.682;2023-07-31T06:13:34;10.13;;;3.05;;
71610;SDS011;59459;51.172;6.682;2023-07-31T06:15:59;8.50;;;2.13;;
71610;SDS011;59459;51.172;6.682;2023-07-31T06:18:24;6.80;;;2.20;;
71610;SDS011;59459;51.172;6.682;2023-07-31T06:20:50;6.50;;;2.17;;
71610;SDS011;59459;51.172;6.682;2023-07-31T06:23:18;6.97;;;2.22;;
71610;SDS011;59459;51.172;6.682;2023-07-31T06:25:43;6.97;;;2.20;;
71610;SDS011;59459;51.172;6.682;2023-07-31T06:28:09;6.57;;;2.10;;
71610;SDS011;59459;51.172;6.682;2023-07-31T06:30:34;6.00;;;2.00;;
71610;SDS011;59459;51.172;6.682;2023-07-31T06:32:59;7.47;;;2.00;;
71610;SDS011;59459;51.172;6.682;2023-07-31T06:35:25;8.00;;;2.10;;
71610;SDS011;59459;51.172;6.682;2023-07-31T06:37:50;7.50;;;1.97;;
71610;SDS011;59459;51.172;6.682;2023-07-31T06:40:16;5.82;;;2.22;;
71610;SDS011;59459;51.172;6.682;2023-07-31T06:42:41;7.13;;;2.17;;
71610;SDS011;59459;51.172;6.682;2023-07-31T06:45:07;5.90;;;2.23;;
71610;SDS011;59459;51.172;6.682;2023-07-31T06:47:32;8.17;;;2.40;;
71610;SDS011;59459;51.172;6.682;2023-07-31T06:49:57;6.67;;;2.23;;
71610;SDS011;59459;51.172;6.682;2023-07-31T06:52:23;7.70;;;2.17;;
71610;SDS011;59459;51.172;6.682;2023-07-31T06:55:00;7.63;;;1.83;;
71610;SDS011;59459;51.172;6.682;2023-07-31T06:57:25;7.70;;;2.25;;
71610;SDS011;59459;51.172;6.682;2023-07-31T06:59:51;6.50;;;1.80;;
71610;SDS011;59459;51.172;6.682;2023-07-31T07:02:16;4.97;;;1.47;;
71610;SDS011;59459;51.172;6.682;2023-07-31T07:04:41;5.30;;;1.77;;
71610;SDS011;59459;51.172;6.682;2023-07-31T07:07:06;6.33;;;1.83;;
71610;SDS011;59459;51.172;6.682;2023-07-31T07:09:31;6.23;;;2.50;;
71610;SDS011;59459;51.172;6.682;2023-07-31T07:11:57;7.77;;;2.10;;
71610;SDS011;59459;51.172;6.682;2023-07-31T07:14:22;4.50;;;1.60;;
71610;SDS011;59459;51.172;6.682;2023-07-31T07:16:50;8.43;;;1.97;;
71610;SDS011;59459;51.172;6.682;2023-07-31T07:19:15;6.15;;;2.13;;
71610;SDS011;59459;51.172;6.682;2023-07-31T07:21:40;5.20;;;1.57;;
71610;SDS011;59459;51.172;6.682;2023-07-31T07:24:06;8.23;;;2.27;;
71610;SDS011;59459;51.172;6.682;2023-07-31T07:26:31;8.83;;;2.63;;
71610;SDS011;59459;51.172;6.682;2023-07-31T07:28:56;5.90;;;2.03;;
71610;SDS011;59459;51.172;6.682;2023-07-31T07:31:22;7.68;;;2.22;;
71610;SDS011;59459;51.172;6.682;2023-07-31T07:33:48;9.33;;;2.60;;
71610;SDS011;59459;51.172;6.682;2023-07-31T07:36:13;6.87;;;1.60;;
71610;SDS011;59459;51.172;6.682;2023-07-31T07:38:38;7.13;;;2.00;;
71610;SDS011;59459;51.172;6.682;2023-07-31T07:41:04;7.13;;;1.92;;
71610;SDS011;59459;51.172;6.682;2023-07-31T07:43:29;6.43;;;2.03;;
71610;SDS011;59459;51.172;6.682;2023-07-31T07:45:54;8.43;;;2.37;;
71610;SDS011;59459;51.172;6.682;2023-07-31T07:48:20;8.53;;;2.30;;
71610;SDS011;59459;51.172;6.682;2023-07-31T07:50:45;6.47;;;1.80;;
71610;SDS011;59459;51.172;6.682;2023-07-31T07:53:10;5.90;;;1.80;;
71610;SDS011;59459;51.172;6.682;2023-07-31T07:55:36;8.73;;;2.30;;
71610;SDS011;59459;51.172;6.682;2023-07-31T07:58:01;9.63;;;2.60;;
71610;SDS011;59459;51.172;6.682;2023-07-31T08:00:26;7.83;;;2.20;;
71610;SDS011;59459;51.172;6.682;2023-07-31T08:02:51;5.90;;;2.37;;
71610;SDS011;59459;51.172;6.682;2023-07-31T08:05:16;4.67;;;1.90;;
71610;SDS011;59459;51.172;6.682;2023-07-31T08:07:42;7.53;;;2.20;;
71610;SDS011;59459;51.172;6.682;2023-07-31T08:10:08;7.60;;;2.80;;
71610;SDS011;59459;51.172;6.682;2023-07-31T08:12:33;6.87;;;1.90;;
71610;SDS011;59459;51.172;6.682;2023-07-31T08:14:58;5.97;;;1.83;;
71610;SDS011;59459;51.172;6.682;2023-07-31T08:17:25;5.70;;;2.33;;
71610;SDS011;59459;51.172;6.682;2023-07-31T08:19:50;7.87;;;2.20;;
71610;SDS011;59459;51.172;6.682;2023-07-31T08:22:15;7.10;;;2.60;;
71610;SDS011;59459;51.172;6.682;2023-07-31T08:24:40;6.30;;;1.87;;
71610;SDS011;59459;51.172;6.682;2023-07-31T08:27:06;5.97;;;2.00;;
71610;SDS011;59459;51.172;6.682;2023-07-31T08:29:31;6.00;;;2.07;;
71610;SDS011;59459;51.172;6.682;2023-07-31T08:31:56;6.70;;;1.87;;
71610;SDS011;59459;51.172;6.682;2023-07-31T08:34:21;5.93;;;2.20;;
71610;SDS011;59459;51.172;6.682;2023-07-31T08:36:46;7.53;;;1.77;;
71610;SDS011;59459;51.172;6.682;2023-07-31T08:39:12;6.47;;;2.20;;
71610;SDS011;59459;51.172;6.682;2023-07-31T08:41:40;6.30;;;2.30;;
71610;SDS011;59459;51.172;6.682;2023-07-31T08:44:06;5.43;;;1.83;;
71610;SDS011;59459;51.172;6.682;2023-07-31T08:46:32;5.80;;;1.85;;
71610;SDS011;59459;51.172;6.682;2023-07-31T08:48:58;5.82;;;2.08;;
71610;SDS011;59459;51.172;6.682;2023-07-31T08:51:23;6.05;;;1.80;;
71610;SDS011;59459;51.172;6.682;2023-07-31T08:53:49;7.63;;;2.60;;
71610;SDS011;59459;51.172;6.682;2023-07-31T08:56:14;5.10;;;1.80;;
71610;SDS011;59459;51.172;6.682;2023-07-31T08:58:43;7.25;;;2.38;;
71610;SDS011;59459;51.172;6.682;2023-07-31T09:01:09;5.85;;;2.25;;
71610;SDS011;59459;51.172;6.682;2023-07-31T09:03:34;8.10;;;2.53;;
71610;SDS011;59459;51.172;6.682;2023-07-31T09:06:00;6.50;;;2.20;;
71610;SDS011;59459;51.172;6.682;2023-07-31T09:08:29;7.17;;;2.07;;
71610;SDS011;59459;51.172;6.682;2023-07-31T09:10:55;7.32;;;2.10;;
71610;SDS011;59459;51.172;6.682;2023-07-31T09:13:23;5.57;;;1.90;;
71610;SDS011;59459;51.172;6.682;2023-07-31T09:15:49;7.10;;;2.40;;
71610;SDS011;59459;51.172;6.682;2023-07-31T09:18:14;6.90;;;2.47;;
71610;SDS011;59459;51.172;6.682;2023-07-31T09:20:43;7.10;;;2.53;;
71610;SDS011;59459;51.172;6.682;2023-07-31T09:23:09;6.30;;;2.30;;
71610;SDS011;59459;51.172;6.682;2023-07-31T09:25:35;7.50;;;2.35;;
71610;SDS011;59459;51.172;6.682;2023-07-31T09:28:01;6.60;;;2.17;;
71610;SDS011;59459;51.172;6.682;2023-07-31T09:30:27;5.88;;;1.60;;
71610;SDS011;59459;51.172;6.682;2023-07-31T09:32:59;5.07;;;2.07;;
71610;SDS011;59459;51.172;6.682;2023-07-31T09:37:57;6.90;;;2.13;;
71610;SDS011;59459;51.172;6.682;2023-07-31T09:40:29;5.30;;;2.20;;
71610;SDS011;59459;51.172;6.682;2023-07-31T09:42:59;5.38;;;2.00;;
71610;SDS011;59459;51.172;6.682;2023-07-31T09:45:24;7.72;;;1.98;;
71610;SDS011;59459;51.172;6.682;2023-07-31T09:47:50;6.53;;;2.03;;
71610;SDS011;59459;51.172;6.682;2023-07-31T09:50:15;9.32;;;2.58;;
71610;SDS011;59459;51.172;6.682;2023-07-31T09:52:43;6.23;;;1.90;;
71610;SDS011;59459;51.172;6.682;2023-07-31T09:55:09;4.60;;;1.50;;
71610;SDS011;59459;51.172;6.682;2023-07-31T09:57:36;6.10;;;2.47;;
71610;SDS011;59459;51.172;6.682;2023-07-31T10:00:03;6.43;;;2.05;;
71610;SDS011;59459;51.172;6.682;2023-07-31T10:02:29;7.32;;;1.95;;
71610;SDS011;59459;51.172;6.682;2023-07-31T10:04:57;6.17;;;2.07;;
71610;SDS011;59459;51.172;6.682;2023-07-31T10:07:23;4.68;;;1.75;;
71610;SDS011;59459;51.172;6.682;2023-07-31T10:09:50;6.13;;;1.92;;
71610;SDS011;59459;51.172;6.682;2023-07-31T10:12:16;8.10;;;2.00;;
71610;SDS011;59459;51.172;6.682;2023-07-31T10:14:44;5.35;;;2.00;;
71610;SDS011;59459;51.172;6.682;2023-07-31T10:17:09;6.83;;;2.10;;
71610;SDS011;59459;51.172;6.682;2023-07-31T10:19:35;5.35;;;1.90;;
71610;SDS011;59459;51.172;6.682;2023-07-31T10:22:02;5.80;;;2.37;;
71610;SDS011;59459;51.172;6.682;2023-07-31T10:24:27;7.15;;;2.28;;
71610;SDS011;59459;51.172;6.682;2023-07-31T10:26:53;5.18;;;2.20;;
71610;SDS011;59459;51.172;6.682;2023-07-31T10:29:22;6.18;;;1.80;;
71610;SDS011;59459;51.172;6.682;2023-07-31T10:31:49;6.28;;;2.78;;
71610;SDS011;59459;51.172;6.682;2023-07-31T10:34:15;4.93;;;2.00;;
71610;SDS011;59459;51.172;6.682;2023-07-31T10:36:41;5.75;;;1.85;;
71610;SDS011;59459;51.172;6.682;2023-07-31T10:39:06;6.70;;;2.30;;
71610;SDS011;59459;51.172;6.682;2023-07-31T10:41:51;5.10;;;1.70;;
71610;SDS011;59459;51.172;6.682;2023-07-31T10:44:16;4.57;;;1.63;;
71610;SDS011;59459;51.172;6.682;2023-07-31T10:46:42;5.60;;;2.23;;
71610;SDS011;59459;51.172;6.682;2023-07-31T10:49:07;4.97;;;1.77;;
71610;SDS011;59459;51.172;6.682;2023-07-31T10:51:33;4.20;;;1.67;;
71610;SDS011;59459;51.172;6.682;2023-07-31T10:54:12;5.18;;;1.65;;
71610;SDS011;59459;51.172;6.682;2023-07-31T10:56:38;4.53;;;1.67;;
71610;SDS011;59459;51.172;6.682;2023-07-31T10:59:04;3.88;;;1.35;;
71610;SDS011;59459;51.172;6.682;2023-07-31T11:04:13;4.20;;;1.00;;
71610;SDS011;59459;51.172;6.682;2023-07-31T11:06:38;3.83;;;1.10;;
71610;SDS011;59459;51.172;6.682;2023-07-31T11:09:03;4.27;;;1.10;;
71610;SDS011;59459;51.172;6.682;2023-07-31T11:11:30;3.80;;;1.17;;
71610;SDS011;59459;51.172;6.682;2023-07-31T11:13:55;3.87;;;1.00;;
71610;SDS011;59459;51.172;6.682;2023-07-31T11:16:21;5.30;;;1.70;;
71610;SDS011;59459;51.172;6.682;2023-07-31T11:18:47;3.90;;;1.30;;
71610;SDS011;59459;51.172;6.682;2023-07-31T11:21:16;4.53;;;1.15;;
71610;SDS011;59459;51.172;6.682;2023-07-31T11:23:45;3.67;;;1.03;;
71610;SDS011;59459;51.172;6.682;2023-07-31T11:26:11;3.60;;;1.10;;
71610;SDS011;59459;51.172;6.682;2023-07-31T11:28:36;4.28;;;1.27;;
71610;SDS011;59459;51.172;6.682;2023-07-31T11:31:03;2.17;;;1.03;;
71610;SDS011;59459;51.172;6.682;2023-07-31T11:33:28;3.13;;;1.20;;
71610;SDS011;59459;51.172;6.682;2023-07-31T11:35:53;4.05;;;1.10;;
71610;SDS011;59459;51.172;6.682;2023-07-31T11:40:50;3.15;;;1.33;;
71610;SDS011;59459;51.172;6.682;2023-07-31T11:43:16;2.83;;;1.00;;
71610;SDS011;59459;51.172;6.682;2023-07-31T11:45:45;4.88;;;1.05;;
71610;SDS011;59459;51.172;6.682;2023-07-31T11:48:17;3.78;;;1.10;;
71610;SDS011;59459;51.172;6.682;2023-07-31T11:50:43;2.50;;;0.98;;
71610;SDS011;59459;51.172;6.682;2023-07-31T11:53:08;1.93;;;0.97;;
71610;SDS011;59459;51.172;6.682;2023-07-31T11:55:34;3.30;;;1.23;;
71610;SDS011;59459;51.172;6.682;2023-07-31T11:57:59;2.43;;;1.13;;
71610;SDS011;59459;51.172;6.682;2023-07-31T12:00:25;3.37;;;1.50;;
71610;SDS011;59459;51.172;6.682;2023-07-31T12:02:50;3.57;;;1.13;;
71610;SDS011;59459;51.172;6.682;2023-07-31T12:05:16;3.40;;;1.00;;
71610;SDS011;59459;51.172;6.682;2023-07-31T12:07:52;3.80;;;1.10;;
71610;SDS011;59459;51.172;6.682;2023-07-31T12:10:30;3.00;;;0.90;;
71610;SDS011;59459;51.172;6.682;2023-07-31T12:13:02;3.88;;;1.23;;
71610;SDS011;59459;51.172;6.682;2023-07-31T12:15:29;3.73;;;0.93;;
71610;SDS011;59459;51.172;6.682;2023-07-31T12:17:54;3.85;;;1.40;;
71610;SDS011;59459;51.172;6.682;2023-07-31T12:20:20;4.23;;;1.50;;
71610;SDS011;59459;51.172;6.682;2023-07-31T12:22:45;2.78;;;1.17;;
71610;SDS011;59459;51.172;6.682;2023-07-31T12:25:15;5.13;;;1.43;;
71610;SDS011;59459;51.172;6.682;2023-07-31T12:27:40;5.60;;;1.60;;
71610;SDS011;59459;51.172;6.682;2023-07-31T12:30:25;5.50;;;1.17;;
71610;SDS011;59459;51.172;6.682;2023-07-31T12:32:51;3.55;;;1.00;;
71610;SDS011;59459;51.172;6.682;2023-07-31T12:35:16;4.93;;;1.50;;
71610;SDS011;59459;51.172;6.682;2023-07-31T12:37:41;5.40;;;1.53;;
71610;SDS011;59459;51.172;6.682;2023-07-31T12:40:06;4.50;;;1.93;;
71610;SDS011;59459;51.172;6.682;2023-07-31T12:42:32;4.83;;;1.60;;
71610;SDS011;59459;51.172;6.682;2023-07-31T12:44:57;4.73;;;1.50;;
71610;SDS011;59459;51.172;6.682;2023-07-31T12:47:23;5.50;;;1.60;;
71610;SDS011;59459;51.172;6.682;2023-07-31T12:49:48;3.40;;;1.03;;
71610;SDS011;59459;51.172;6.682;2023-07-31T12:52:13;4.67;;;1.60;;
71610;SDS011;59459;51.172;6.682;2023-07-31T12:54:39;5.73;;;1.80;;
71610;SDS011;59459;51.172;6.682;2023-07-31T12:57:04;5.97;;;2.10;;
71610;SDS011;59459;51.172;6.682;2023-07-31T12:59:29;4.50;;;1.30;;
71610;SDS011;59459;51.172;6.682;2023-07-31T13:01:54;6.07;;;1.90;;
71610;SDS011;59459;51.172;6.682;2023-07-31T13:04:20;4.50;;;2.10;;
71610;SDS011;59459;51.172;6.682;2023-07-31T13:06:45;5.23;;;2.13;;
71610;SDS011;59459;51.172;6.682;2023-07-31T13:09:10;6.23;;;1.73;;
71610;SDS011;59459;51.172;6.682;2023-07-31T13:11:36;5.43;;;2.00;;
71610;SDS011;59459;51.172;6.682;2023-07-31T13:14:01;5.60;;;1.73;;
71610;SDS011;59459;51.172;6.682;2023-07-31T13:16:26;5.47;;;1.70;;
71610;SDS011;59459;51.172;6.682;2023-07-31T13:18:52;4.10;;;1.80;;
71610;SDS011;59459;51.172;6.682;2023-07-31T13:21:18;5.47;;;2.30;;
71610;SDS011;59459;51.172;6.682;2023-07-31T13:23:43;5.17;;;1.90;;
71610;SDS011;59459;51.172;6.682;2023-07-31T13:26:08;5.87;;;1.97;;
71610;SDS011;59459;51.172;6.682;2023-07-31T13:28:34;5.33;;;1.93;;
71610;SDS011;59459;51.172;6.682;2023-07-31T13:30:59;4.80;;;1.63;;
71610;SDS011;59459;51.172;6.682;2023-07-31T13:36:25;4.70;;;1.85;;
71610;SDS011;59459;51.172;6.682;2023-07-31T13:38:50;4.53;;;1.80;;
71610;SDS011;59459;51.172;6.682;2023-07-31T13:41:15;8.33;;;2.43;;
71610;SDS011;59459;51.172;6.682;2023-07-31T13:43:40;5.73;;;2.00;;
71610;SDS011;59459;51.172;6.682;2023-07-31T13:46:06;4.00;;;1.40;;
71610;SDS011;59459;51.172;6.682;2023-07-31T13:48:35;5.13;;;1.80;;
71610;SDS011;59459;51.172;6.682;2023-07-31T13:51:01;4.32;;;1.67;;
71610;SDS011;59459;51.172;6.682;2023-07-31T13:53:26;4.53;;;1.67;;
71610;SDS011;59459;51.172;6.682;2023-07-31T13:55:51;5.13;;;2.00;;
71610;SDS011;59459;51.172;6.682;2023-07-31T13:58:17;4.80;;;1.77;;
71610;SDS011;59459;51.172;6.682;2023-07-31T14:00:42;6.75;;;2.08;;
71610;SDS011;59459;51.172;6.682;2023-07-31T14:03:07;3.57;;;1.30;;
71610;SDS011;59459;51.172;6.682;2023-07-31T14:05:32;4.47;;;1.80;;
71610;SDS011;59459;51.172;6.682;2023-07-31T14:08:01;3.57;;;1.57;;
71610;SDS011;59459;51.172;6.682;2023-07-31T14:10:26;6.00;;;1.88;;
71610;SDS011;59459;51.172;6.682;2023-07-31T14:12:51;4.33;;;1.40;;
71610;SDS011;59459;51.172;6.682;2023-07-31T14:15:17;3.73;;;1.43;;
71610;SDS011;59459;51.172;6.682;2023-07-31T14:17:42;5.10;;;1.80;;
71610;SDS011;59459;51.172;6.682;2023-07-31T14:20:07;5.40;;;2.10;;
71610;SDS011;59459;51.172;6.682;2023-07-31T14:22:32;4.33;;;1.77;;
71610;SDS011;59459;51.172;6.682;2023-07-31T14:24:59;3.97;;;1.77;;
71610;SDS011;59459;51.172;6.682;2023-07-31T14:27:24;4.13;;;1.70;;
71610;SDS011;59459;51.172;6.682;2023-07-31T14:29:49;6.03;;;1.67;;
71610;SDS011;59459;51.172;6.682;2023-07-31T14:32:15;6.87;;;3.07;;
71610;SDS011;59459;51.172;6.682;2023-07-31T14:34:40;7.27;;;2.00;;
71610;SDS011;59459;51.172;6.682;2023-07-31T14:37:05;5.03;;;1.90;;
71610;SDS011;59459;51.172;6.682;2023-07-31T14:39:30;5.00;;;2.00;;
71610;SDS011;59459;51.172;6.682;2023-07-31T14:41:56;5.27;;;1.80;;
71610;SDS011;59459;51.172;6.682;2023-07-31T14:44:21;5.37;;;2.00;;
71610;SDS011;59459;51.172;6.682;2023-07-31T14:46:46;6.97;;;2.10;;
71610;SDS011;59459;51.172;6.682;2023-07-31T14:49:11;6.10;;;1.70;;
71610;SDS011;59459;51.172;6.682;2023-07-31T14:51:36;6.03;;;2.47;;
71610;SDS011;59459;51.172;6.682;2023-07-31T14:54:02;7.33;;;2.20;;
71610;SDS011;59459;51.172;6.682;2023-07-31T14:56:27;5.70;;;2.17;;
71610;SDS011;59459;51.172;6.682;2023-07-31T14:58:53;6.47;;;2.23;;
71610;SDS011;59459;51.172;6.682;2023-07-31T15:01:18;5.33;;;1.90;;
71610;SDS011;59459;51.172;6.682;2023-07-31T15:03:43;6.40;;;2.33;;